Airfield :
LOGIN :

Register | Disclaimer

   EN    FR    IT 

 










Legend :    VFR   Marginal VFR   IFR   Intensive IFR   Very Intensive IFR
Visi :
Ceiling :
>= 8 km
>= 3000ft
5 to 8 km
1000 to 3000 ft
1500m to 5 km
500 to 1000 ft
800 to 1500m
200 to 500 ft
< 800m
< 200 ft
Symbols :   Thunderstorms  Fog  Heavy snow  Heavy precipitations  Wind > 20 kt
SIGMETs :     Misc.  Thunderstorms  Icing  Turbulence  Mountain Waves  Volcanic Ashes






- Airport Elevation : 239 ft
- IATA code : VRN


LIPX - Villafranca Int. Verona

CURRENT METAR :
  • 180620Z 21005KT 6000 BKN070 15/14 Q1018

EXPIRED METARs :
  • 180550Z 22004KT 6000 FEW040 BKN060 15/14 Q1017
  • 180520Z 22004KT 5000 BR BKN060 14/14 Q1017
  • 180450Z 20003KT 6000 BKN070 14/14 Q1017
  • 180420Z 20003KT 6000 BKN070 14/14 Q1017
  • 180350Z VRB01KT 6000 BKN070 14/14 Q1017

TAF TAF LIPX
Valid from the 18 at 06:00 until the 18 at 15:00 UTC


180500Z 1806/1815 VRB05KT 6000 BKN060



MET'MAP, your aeronautical weather chart ! - Copyright ORBIFLY December 2007 - Disclaimer

ORBIFLY MET'MAP TEAM :

Programming & Development : Alexandra Zaïnal
Concept & Development : Baudouin d'Aumeries
Co-Development & Prog : Marc-Olivier Méhu
Technical & hardware support : Manuel Goepfert

Contact : metmap@orbifly.com




SOURCES & CREDITS :

   NOAA